-5.94C
небольшая облачность
небольшая облачность
Дата и времяТемператураДавление, мм рт.ст.Влажность, %Осадки
МинимумМаксимум
14.04.2024 08:00-8.17C-5.94C75263небольшая облачность
14.04.2024 11:00-5.64C-5.04C75367переменная облачность
14.04.2024 14:00-4.44C-3.69C75571облачно с прояснениями
14.04.2024 17:00-3.46C-3.46C75876небольшой снег
14.04.2024 20:00-4.37C-4.37C75985небольшой снег
14.04.2024 23:00-6.06C-6.06C76088небольшой снег
15.04.2024 02:00-7.5C-7.5C76283пасмурно
15.04.2024 05:00-7.54C-7.54C76281пасмурно
15.04.2024 08:00-5.14C-5.14C76382пасмурно
15.04.2024 11:00-2.93C-2.93C76364облачно с прояснениями
15.04.2024 14:00-0.4C-0.4C76358переменная облачность
15.04.2024 17:000.89C0.89C76361облачно с прояснениями
15.04.2024 20:00-1.02C-1.02C76371облачно с прояснениями
15.04.2024 23:00-1.43C-1.43C76274переменная облачность
16.04.2024 02:00-1.74C-1.74C76277переменная облачность
16.04.2024 05:00-1.73C-1.73C76281переменная облачность
16.04.2024 08:000.89C0.89C76177переменная облачность
16.04.2024 11:004.64C4.64C76068переменная облачность
16.04.2024 14:007.1C7.1C75964переменная облачность
16.04.2024 17:007.25C7.25C75670небольшая облачность
16.04.2024 20:004.34C4.34C75686небольшой дождь
16.04.2024 23:003.02C3.02C75397небольшой дождь
17.04.2024 02:003.58C3.58C75195дождь
17.04.2024 05:003.48C3.48C75097дождь
17.04.2024 08:004.44C4.44C75093пасмурно
17.04.2024 11:008.67C8.67C75070пасмурно
17.04.2024 14:008.66C8.66C75065небольшой дождь
17.04.2024 17:008.04C8.04C75266пасмурно
17.04.2024 20:005.1C5.1C75280переменная облачность
17.04.2024 23:005.22C5.22C75079облачно с прояснениями
18.04.2024 02:004.88C4.88C74690небольшой дождь
18.04.2024 05:006.12C6.12C74394небольшой дождь
18.04.2024 08:007.15C7.15C74473пасмурно
18.04.2024 11:005.64C5.64C74689небольшой дождь
18.04.2024 14:003.08C3.08C75096небольшой дождь
18.04.2024 17:003.08C3.08C75485пасмурно
18.04.2024 20:001.19C1.19C75881пасмурно
18.04.2024 23:00-1.04C-1.04C76073пасмурно
19.04.2024 02:00-2.81C-2.81C76276небольшая облачность
19.04.2024 05:00-3.5C-3.5C76579переменная облачность
Дата и время наблюдения: 14.04.2024 07:20:31